createdAt,value
2018-12-31T00:02:09.144Z,7.90
2018-12-31T00:04:49.516Z,6.00
2018-12-31T00:07:29.427Z,6.80
2018-12-31T00:10:09.211Z,8.00
2018-12-31T00:12:49.399Z,6.80
2018-12-31T00:15:29.412Z,6.80
2018-12-31T00:18:09.299Z,6.80
2018-12-31T00:20:49.381Z,6.80
2018-12-31T00:23:29.274Z,8.20
2018-12-31T00:26:09.709Z,6.80
2018-12-31T00:28:49.589Z,7.00
2018-12-31T00:31:29.681Z,8.30
2018-12-31T00:34:09.681Z,6.20
2018-12-31T00:36:49.868Z,6.80
2018-12-31T00:39:30.129Z,6.30
2018-12-31T00:42:10.138Z,6.80
2018-12-31T00:44:50.142Z,6.80
2018-12-31T00:47:30.208Z,6.80
2018-12-31T00:50:10.291Z,8.10
2018-12-31T00:52:50.218Z,6.80
2018-12-31T00:55:30.229Z,6.80
2018-12-31T00:58:10.039Z,8.20
2018-12-31T01:00:49.996Z,6.80
2018-12-31T01:03:29.952Z,6.80
2018-12-31T01:06:10.114Z,5.80
2018-12-31T01:08:50.102Z,6.80
2018-12-31T01:11:30.263Z,6.50
2018-12-31T01:14:10.361Z,6.80
2018-12-31T01:16:50.350Z,6.80
2018-12-31T01:19:30.385Z,6.10
2018-12-31T01:22:10.523Z,6.80
2018-12-31T01:24:50.664Z,7.20
2018-12-31T01:27:30.687Z,6.10
2018-12-31T01:30:10.785Z,6.80
2018-12-31T01:32:50.719Z,6.80
2018-12-31T01:35:30.858Z,6.20
2018-12-31T01:38:11.133Z,5.90
2018-12-31T01:40:51.268Z,8.10
2018-12-31T01:43:31.507Z,6.00
2018-12-31T01:46:11.425Z,8.10
2018-12-31T01:48:51.556Z,6.90
2018-12-31T01:51:31.713Z,6.50
2018-12-31T01:54:11.872Z,6.80
2018-12-31T01:56:51.876Z,6.20
2018-12-31T01:59:31.828Z,6.40
2018-12-31T02:02:11.912Z,6.90
2018-12-31T02:04:51.909Z,7.00
2018-12-31T02:07:31.863Z,6.30
2018-12-31T02:10:11.810Z,7.00
2018-12-31T02:12:51.829Z,7.00
2018-12-31T02:15:31.814Z,7.00
2018-12-31T02:18:11.884Z,6.50
2018-12-31T02:20:51.764Z,7.00
2018-12-31T02:23:31.798Z,7.00
2018-12-31T02:26:13.622Z,6.10
2018-12-31T02:28:53.985Z,7.00
2018-12-31T02:31:34.008Z,7.00
2018-12-31T02:34:13.994Z,7.00
2018-12-31T02:36:53.885Z,7.00
2018-12-31T02:39:33.838Z,8.10
2018-12-31T02:42:13.969Z,7.20
2018-12-31T02:44:53.831Z,7.80
2018-12-31T02:47:33.900Z,7.10
2018-12-31T02:50:14.019Z,7.10
2018-12-31T02:52:54.343Z,7.10
2018-12-31T02:55:34.229Z,7.10
2018-12-31T02:58:14.409Z,6.50
2018-12-31T03:00:54.284Z,7.10
2018-12-31T03:03:34.476Z,7.10
2018-12-31T03:06:14.491Z,6.20
2018-12-31T03:08:54.648Z,7.10
2018-12-31T03:11:34.372Z,6.20
2018-12-31T03:14:14.459Z,7.20
2018-12-31T03:16:54.420Z,7.10
2018-12-31T03:19:34.509Z,7.50
2018-12-31T03:22:14.453Z,8.30
2018-12-31T03:24:54.542Z,8.50
2018-12-31T03:27:34.457Z,7.10
2018-12-31T03:30:14.589Z,6.30
2018-12-31T03:32:54.529Z,8.30
2018-12-31T03:35:34.653Z,8.60
2018-12-31T03:38:14.965Z,8.20
2018-12-31T03:40:54.845Z,6.70
2018-12-31T03:43:34.948Z,7.10
2018-12-31T03:46:14.972Z,7.20
2018-12-31T03:48:55.100Z,7.10
2018-12-31T03:51:35.207Z,8.50
2018-12-31T03:54:15.104Z,7.50
2018-12-31T03:56:55.228Z,8.40
2018-12-31T03:59:35.245Z,7.30
2018-12-31T04:02:15.285Z,7.00
2018-12-31T04:04:55.257Z,6.80
2018-12-31T04:07:35.136Z,6.30
2018-12-31T04:10:15.190Z,7.00
2018-12-31T04:12:55.105Z,7.80
2018-12-31T04:15:35.144Z,7.00
2018-12-31T04:18:15.213Z,7.00
2018-12-31T04:20:55.236Z,8.30
2018-12-31T04:23:35.624Z,7.00
2018-12-31T04:26:15.548Z,6.60
2018-12-31T04:28:55.677Z,7.00
2018-12-31T04:31:35.633Z,7.10
2018-12-31T04:34:15.666Z,8.30
2018-12-31T04:36:55.771Z,7.10
2018-12-31T04:39:35.715Z,7.10
2018-12-31T04:42:15.919Z,7.10
2018-12-31T04:44:55.977Z,7.20
2018-12-31T04:47:36.073Z,8.40
2018-12-31T04:50:16.233Z,8.10
2018-12-31T04:52:56.651Z,7.30
2018-12-31T04:55:44.383Z,7.10
2018-12-31T04:58:22.923Z,7.20
2018-12-31T05:01:00.890Z,7.20
2018-12-31T05:03:41.228Z,7.30
2018-12-31T05:06:21.117Z,7.70
2018-12-31T05:09:01.096Z,7.40
2018-12-31T05:11:41.256Z,8.00
2018-12-31T05:14:21.317Z,6.60
2018-12-31T05:17:01.624Z,8.00
2018-12-31T05:19:41.613Z,7.40
2018-12-31T05:22:21.755Z,7.50
2018-12-31T05:25:01.845Z,7.40
2018-12-31T05:27:41.772Z,8.10
2018-12-31T05:30:21.872Z,7.50
2018-12-31T05:33:02.157Z,7.60
2018-12-31T05:35:42.508Z,7.60
2018-12-31T05:38:22.615Z,6.70
2018-12-31T05:41:02.744Z,7.70
2018-12-31T05:43:42.859Z,7.60
2018-12-31T05:46:23.115Z,6.60
2018-12-31T05:49:03.028Z,7.60
2018-12-31T05:51:43.039Z,7.60
2018-12-31T05:54:22.959Z,7.70
2018-12-31T05:57:03.143Z,6.80
2018-12-31T05:59:43.334Z,7.70
2018-12-31T06:02:22.988Z,7.50
2018-12-31T06:05:03.272Z,7.70
2018-12-31T06:07:43.332Z,7.90
2018-12-31T06:10:23.416Z,7.70
2018-12-31T06:13:03.587Z,9.00
2018-12-31T06:15:43.634Z,7.60
2018-12-31T06:18:23.548Z,7.80
2018-12-31T06:21:03.673Z,7.00
2018-12-31T06:23:43.540Z,8.00
2018-12-31T06:26:23.812Z,8.20
2018-12-31T06:29:03.593Z,7.80
2018-12-31T06:31:43.699Z,7.80
2018-12-31T06:34:23.746Z,7.80
2018-12-31T06:37:03.897Z,7.80
2018-12-31T06:39:44.029Z,7.80
2018-12-31T06:42:24.149Z,7.80
2018-12-31T06:45:03.966Z,7.80
2018-12-31T06:47:43.833Z,7.20
2018-12-31T06:50:23.923Z,9.00
2018-12-31T06:53:04.282Z,7.00
2018-12-31T06:55:44.195Z,6.80
2018-12-31T06:58:25.453Z,9.10
2018-12-31T07:01:06.116Z,7.10
2018-12-31T07:03:46.297Z,8.10
2018-12-31T07:06:26.150Z,7.90
2018-12-31T07:09:06.543Z,7.50
2018-12-31T07:11:46.696Z,7.50
2018-12-31T07:14:26.603Z,7.00
2018-12-31T07:17:06.676Z,7.90
2018-12-31T07:19:46.953Z,6.90
2018-12-31T07:22:26.865Z,7.90
2018-12-31T07:25:06.784Z,9.10
2018-12-31T07:27:46.672Z,7.00
2018-12-31T07:30:26.752Z,7.90
2018-12-31T07:33:06.593Z,7.20
2018-12-31T07:35:46.556Z,7.10
2018-12-31T07:38:26.639Z,7.90
2018-12-31T07:41:06.528Z,7.90
2018-12-31T07:43:46.780Z,7.90
2018-12-31T07:46:26.742Z,8.20
2018-12-31T07:49:06.582Z,8.80
2018-12-31T07:51:46.475Z,7.90
2018-12-31T07:54:26.519Z,7.90
2018-12-31T07:57:06.392Z,8.00
2018-12-31T07:59:46.180Z,8.00
2018-12-31T08:02:26.053Z,8.00
2018-12-31T08:05:06.043Z,7.40
2018-12-31T08:07:46.130Z,8.00
2018-12-31T08:10:26.087Z,7.20
2018-12-31T08:13:06.249Z,9.30
2018-12-31T08:15:46.225Z,9.20
2018-12-31T08:18:26.467Z,8.40
2018-12-31T08:21:06.390Z,8.10
2018-12-31T08:23:46.268Z,8.10
2018-12-31T08:26:26.296Z,8.20
2018-12-31T08:29:06.496Z,8.20
2018-12-31T08:31:46.260Z,8.20
2018-12-31T08:34:26.164Z,9.30
2018-12-31T08:37:06.189Z,8.30
2018-12-31T08:39:45.996Z,8.50
2018-12-31T08:42:26.033Z,9.60
2018-12-31T08:45:06.079Z,8.30
2018-12-31T08:47:46.325Z,8.30
2018-12-31T08:50:26.264Z,8.30
2018-12-31T08:53:06.153Z,8.40
2018-12-31T08:55:46.343Z,8.40
2018-12-31T08:58:26.324Z,8.40
2018-12-31T09:01:06.094Z,9.20
2018-12-31T09:03:46.061Z,8.50
2018-12-31T09:06:26.117Z,8.60
2018-12-31T09:09:06.257Z,8.80
2018-12-31T09:11:46.209Z,8.00
2018-12-31T09:14:26.098Z,8.60
2018-12-31T09:17:06.253Z,8.80
2018-12-31T09:19:46.121Z,8.70
2018-12-31T09:22:26.097Z,10.00
2018-12-31T09:25:05.996Z,10.00
2018-12-31T09:27:45.965Z,8.90
2018-12-31T09:30:25.813Z,8.90
2018-12-31T09:33:06.073Z,9.00
2018-12-31T09:35:45.941Z,9.00
2018-12-31T09:38:25.693Z,9.10
2018-12-31T09:41:05.787Z,9.10
2018-12-31T09:43:45.903Z,9.20
2018-12-31T09:46:25.900Z,8.90
2018-12-31T09:49:05.991Z,9.20
2018-12-31T09:51:45.971Z,9.20
2018-12-31T09:54:26.039Z,9.20
2018-12-31T09:57:06.017Z,9.20
2018-12-31T09:59:46.087Z,8.80
2018-12-31T10:02:26.225Z,9.20
2018-12-31T10:05:06.445Z,9.30
2018-12-31T10:07:46.373Z,9.30
2018-12-31T10:10:26.485Z,9.10
2018-12-31T10:13:06.408Z,9.20
2018-12-31T10:15:46.643Z,9.20
2018-12-31T10:18:26.506Z,9.20
2018-12-31T10:21:06.374Z,9.20
2018-12-31T10:23:46.407Z,8.60
2018-12-31T10:26:26.326Z,9.20
2018-12-31T10:29:06.361Z,8.20
2018-12-31T10:31:46.458Z,9.10
2018-12-31T10:34:26.605Z,9.10
2018-12-31T10:37:06.728Z,9.10
2018-12-31T10:39:46.936Z,8.60
2018-12-31T10:42:27.129Z,10.20
2018-12-31T10:45:07.119Z,10.40
2018-12-31T10:47:47.282Z,9.40
2018-12-31T10:50:27.355Z,8.90
2018-12-31T10:53:07.328Z,9.50
2018-12-31T10:55:47.308Z,9.50
2018-12-31T10:58:27.490Z,9.50
2018-12-31T11:01:07.713Z,9.50
2018-12-31T11:03:47.912Z,8.90
2018-12-31T11:06:27.839Z,9.50
2018-12-31T11:09:07.749Z,8.50
2018-12-31T11:11:47.960Z,8.60
2018-12-31T11:14:27.939Z,9.40
2018-12-31T11:17:07.796Z,8.60
2018-12-31T11:19:47.921Z,9.40
2018-12-31T11:22:28.113Z,9.40
2018-12-31T11:25:08.040Z,9.50
2018-12-31T11:27:48.057Z,9.50
2018-12-31T11:30:28.216Z,10.10
2018-12-31T11:33:08.229Z,10.50
2018-12-31T11:35:48.257Z,9.20
2018-12-31T11:38:28.161Z,9.50
2018-12-31T11:41:08.344Z,9.60
2018-12-31T11:43:48.366Z,9.30
2018-12-31T11:46:28.496Z,10.80
2018-12-31T11:49:08.300Z,9.60
2018-12-31T11:51:48.360Z,9.60
2018-12-31T11:54:28.390Z,9.50
2018-12-31T11:57:08.404Z,9.50
2018-12-31T11:59:48.338Z,9.60
2018-12-31T12:02:28.367Z,9.50
2018-12-31T12:05:08.240Z,9.50
2018-12-31T12:07:48.200Z,9.50
2018-12-31T12:10:28.221Z,10.10
2018-12-31T12:13:08.090Z,9.50
2018-12-31T12:15:48.424Z,10.70
2018-12-31T12:18:28.210Z,9.60
2018-12-31T12:21:08.040Z,9.60
2018-12-31T12:23:47.951Z,9.60
2018-12-31T12:26:27.940Z,10.10
2018-12-31T12:29:07.854Z,9.70
2018-12-31T12:31:48.028Z,10.80
2018-12-31T12:34:27.947Z,9.90
2018-12-31T12:37:07.876Z,9.70
2018-12-31T12:39:48.085Z,9.70
2018-12-31T12:42:28.205Z,9.10
2018-12-31T12:45:08.413Z,10.90
2018-12-31T12:47:48.322Z,10.90
2018-12-31T12:50:28.534Z,9.80
2018-12-31T12:53:09.340Z,9.80
2018-12-31T12:55:49.377Z,9.80
2018-12-31T12:58:29.285Z,9.80
2018-12-31T13:01:09.315Z,9.30
2018-12-31T13:03:49.449Z,9.80
2018-12-31T13:06:29.260Z,9.50
2018-12-31T13:09:09.393Z,9.70
2018-12-31T13:11:49.278Z,9.20
2018-12-31T13:14:29.320Z,10.90
2018-12-31T13:17:09.276Z,9.90
2018-12-31T13:19:49.447Z,9.10
2018-12-31T13:22:28.023Z,10.30
2018-12-31T13:25:08.381Z,9.90
2018-12-31T13:27:48.340Z,11.20
2018-12-31T13:30:28.408Z,10.00
2018-12-31T13:33:08.602Z,11.30
2018-12-31T13:35:48.621Z,9.60
2018-12-31T13:38:28.730Z,10.10
2018-12-31T13:41:08.746Z,10.10
2018-12-31T13:43:48.873Z,10.30
2018-12-31T13:46:28.897Z,10.20
2018-12-31T13:49:08.761Z,9.60
2018-12-31T13:51:48.868Z,10.90
2018-12-31T13:54:28.867Z,9.80
2018-12-31T13:57:08.885Z,10.10
2018-12-31T13:59:48.750Z,9.40
2018-12-31T14:02:28.932Z,10.00
2018-12-31T14:05:08.813Z,10.00
2018-12-31T14:07:48.801Z,9.40
2018-12-31T14:10:28.750Z,10.00
2018-12-31T14:13:08.933Z,10.60
2018-12-31T14:15:48.881Z,10.00
2018-12-31T14:18:28.836Z,9.50
2018-12-31T14:21:08.956Z,9.10
2018-12-31T14:23:48.960Z,9.50
2018-12-31T14:26:28.824Z,9.90
2018-12-31T14:29:09.179Z,9.90
2018-12-31T14:31:49.054Z,11.50
2018-12-31T14:34:29.252Z,11.10
2018-12-31T14:37:09.189Z,9.80
2018-12-31T14:39:49.285Z,10.50
2018-12-31T14:42:29.175Z,9.10
2018-12-31T14:45:09.160Z,11.00
2018-12-31T14:47:48.894Z,11.30
2018-12-31T14:50:29.015Z,9.50
2018-12-31T14:53:08.947Z,9.10
2018-12-31T14:55:48.948Z,9.60
2018-12-31T14:58:28.958Z,9.60
2018-12-31T15:01:09.105Z,9.70
2018-12-31T15:03:49.183Z,9.50
2018-12-31T15:06:29.175Z,9.50
2018-12-31T15:09:09.229Z,9.40
2018-12-31T15:11:49.194Z,9.40
2018-12-31T15:14:29.488Z,10.70
2018-12-31T15:17:09.584Z,9.40
2018-12-31T15:19:49.732Z,9.90
2018-12-31T15:22:29.703Z,9.40
2018-12-31T15:25:09.978Z,10.40
2018-12-31T15:27:50.044Z,9.30
2018-12-31T15:30:30.128Z,9.10
2018-12-31T15:33:10.992Z,9.50
2018-12-31T15:35:50.920Z,8.50
2018-12-31T15:38:30.886Z,9.10
2018-12-31T15:41:10.851Z,9.20
2018-12-31T15:43:50.738Z,9.10
2018-12-31T15:46:30.848Z,9.00
2018-12-31T15:49:10.864Z,9.10
2018-12-31T15:51:51.008Z,9.10
2018-12-31T15:54:31.120Z,9.10
2018-12-31T15:57:11.261Z,9.10
2018-12-31T15:59:51.240Z,9.20
2018-12-31T16:02:31.262Z,8.00
2018-12-31T16:05:11.408Z,9.10
2018-12-31T16:07:51.372Z,9.00
2018-12-31T16:10:31.230Z,9.00
2018-12-31T16:13:11.168Z,8.00
2018-12-31T16:15:51.192Z,9.10
2018-12-31T16:18:31.430Z,8.40
2018-12-31T16:21:11.419Z,8.90
2018-12-31T16:23:51.527Z,10.30
2018-12-31T16:26:31.449Z,8.30
2018-12-31T16:29:11.677Z,9.30
2018-12-31T16:31:51.672Z,8.90
2018-12-31T16:34:31.868Z,8.80
2018-12-31T16:37:11.778Z,8.90
2018-12-31T16:39:51.933Z,8.90
2018-12-31T16:42:31.827Z,8.80
2018-12-31T16:45:11.656Z,10.10
2018-12-31T16:47:51.815Z,9.10
2018-12-31T16:50:31.852Z,7.50
2018-12-31T16:53:11.728Z,8.80
2018-12-31T16:55:51.645Z,8.80
2018-12-31T16:58:31.741Z,9.70
2018-12-31T17:01:11.795Z,7.50
2018-12-31T17:03:51.785Z,8.10
2018-12-31T17:06:31.866Z,8.10
2018-12-31T17:09:11.940Z,8.80
2018-12-31T17:11:51.936Z,10.20
2018-12-31T17:14:32.105Z,8.80
2018-12-31T17:17:11.996Z,8.80
2018-12-31T17:19:52.007Z,8.80
2018-12-31T17:22:32.029Z,7.90
2018-12-31T17:25:12.111Z,9.00
2018-12-31T17:27:52.046Z,8.80
2018-12-31T17:30:32.041Z,8.80
2018-12-31T17:33:12.089Z,8.80
2018-12-31T17:35:51.962Z,10.20
2018-12-31T17:38:31.918Z,8.80
2018-12-31T17:41:11.983Z,8.40
2018-12-31T17:43:51.989Z,8.90
2018-12-31T17:46:31.963Z,9.80
2018-12-31T17:49:12.455Z,8.80
2018-12-31T17:51:55.924Z,8.00
2018-12-31T17:54:34.320Z,8.80
2018-12-31T17:57:14.277Z,8.20
2018-12-31T17:59:54.496Z,9.70
2018-12-31T18:02:35.444Z,9.60
2018-12-31T18:05:15.229Z,8.70
2018-12-31T18:07:55.311Z,7.70
2018-12-31T18:10:35.361Z,8.80
2018-12-31T18:13:15.061Z,8.80
2018-12-31T18:15:55.045Z,10.20
2018-12-31T18:18:35.191Z,8.80
2018-12-31T18:21:15.321Z,8.80
2018-12-31T18:23:55.293Z,8.80
2018-12-31T18:26:35.373Z,9.70
2018-12-31T18:29:15.169Z,8.70
2018-12-31T18:31:55.034Z,9.40
2018-12-31T18:34:34.855Z,8.80
2018-12-31T18:37:14.977Z,8.80
2018-12-31T18:39:58.235Z,8.90
2018-12-31T18:42:37.071Z,8.80
2018-12-31T18:45:17.038Z,8.80
2018-12-31T18:47:57.003Z,8.80
2018-12-31T18:50:37.085Z,10.10
2018-12-31T18:53:16.993Z,8.80
2018-12-31T18:55:57.146Z,8.80
2018-12-31T18:58:37.278Z,8.80
2018-12-31T19:01:17.390Z,8.70
2018-12-31T19:03:57.212Z,8.80
2018-12-31T19:06:37.327Z,9.70
2018-12-31T19:09:17.414Z,8.80
2018-12-31T19:11:57.385Z,8.30
2018-12-31T19:14:37.490Z,10.00
2018-12-31T19:17:17.493Z,8.70
2018-12-31T19:19:57.676Z,8.90
2018-12-31T19:22:37.908Z,10.20
2018-12-31T19:25:17.841Z,8.10
2018-12-31T19:27:57.827Z,8.80
2018-12-31T19:30:37.693Z,8.70
2018-12-31T19:33:17.565Z,8.70
2018-12-31T19:35:57.676Z,8.80
2018-12-31T19:38:37.901Z,9.60
2018-12-31T19:41:17.864Z,7.80
2018-12-31T19:43:58.091Z,8.70
2018-12-31T19:46:38.215Z,10.00
2018-12-31T19:49:18.180Z,8.60
2018-12-31T19:51:58.435Z,8.60
2018-12-31T19:54:38.543Z,8.60
2018-12-31T19:57:18.560Z,8.50
2018-12-31T19:59:58.716Z,8.50
2018-12-31T20:02:38.849Z,8.50
2018-12-31T20:05:19.020Z,8.50
2018-12-31T20:07:59.100Z,8.50
2018-12-31T20:10:39.257Z,8.50
2018-12-31T20:13:19.417Z,8.50
2018-12-31T20:15:59.707Z,8.70
2018-12-31T20:18:39.359Z,7.60
2018-12-31T20:21:19.363Z,8.40
2018-12-31T20:23:59.560Z,8.40
2018-12-31T20:26:39.643Z,9.10
2018-12-31T20:29:20.556Z,7.80
2018-12-31T20:32:00.660Z,8.40
2018-12-31T20:34:40.677Z,7.50
2018-12-31T20:37:20.849Z,8.40
2018-12-31T20:40:00.907Z,8.60
2018-12-31T20:42:40.946Z,9.20
2018-12-31T20:45:20.711Z,8.40
2018-12-31T20:48:01.914Z,8.20
2018-12-31T20:50:42.697Z,8.40
2018-12-31T20:53:22.662Z,8.30
2018-12-31T20:56:02.864Z,8.30
2018-12-31T20:58:42.824Z,8.40
2018-12-31T21:01:23.056Z,8.40
2018-12-31T21:04:03.099Z,9.70
2018-12-31T21:06:43.060Z,9.40
2018-12-31T21:09:23.219Z,8.60
2018-12-31T21:12:03.402Z,8.40
2018-12-31T21:14:43.476Z,8.40
2018-12-31T21:17:23.828Z,7.90
2018-12-31T21:20:03.745Z,8.40
2018-12-31T21:22:43.877Z,8.10
2018-12-31T21:25:24.731Z,8.40
2018-12-31T21:28:04.653Z,8.30
2018-12-31T21:30:44.746Z,7.60
2018-12-31T21:33:24.761Z,8.90
2018-12-31T21:36:04.847Z,8.50
2018-12-31T21:38:45.099Z,8.30
2018-12-31T21:41:25.092Z,8.50
2018-12-31T21:44:05.303Z,8.50
2018-12-31T21:46:45.200Z,8.30
2018-12-31T21:49:25.450Z,8.80
2018-12-31T21:52:05.519Z,8.30
2018-12-31T21:54:45.356Z,8.40
2018-12-31T21:57:25.403Z,8.30
2018-12-31T22:00:05.529Z,8.30
2018-12-31T22:02:45.443Z,8.30
2018-12-31T22:05:25.365Z,9.60
2018-12-31T22:08:05.444Z,9.90
2018-12-31T22:10:45.487Z,8.20
2018-12-31T22:13:25.313Z,8.20
2018-12-31T22:16:05.414Z,8.20
2018-12-31T22:18:45.484Z,8.70
2018-12-31T22:21:25.636Z,7.50
2018-12-31T22:24:05.624Z,8.20
2018-12-31T22:26:45.800Z,8.40
2018-12-31T22:29:25.800Z,8.20
2018-12-31T22:32:05.803Z,9.60
2018-12-31T22:34:45.731Z,8.20
2018-12-31T22:37:26.003Z,9.40
2018-12-31T22:40:06.090Z,7.80
2018-12-31T22:42:46.041Z,9.80
2018-12-31T22:45:25.979Z,7.50
2018-12-31T22:48:06.011Z,7.40
2018-12-31T22:50:45.824Z,7.50
2018-12-31T22:53:25.932Z,8.20
2018-12-31T22:56:06.141Z,8.20
2018-12-31T22:58:46.067Z,7.30
2018-12-31T23:01:26.322Z,8.20
2018-12-31T23:04:06.067Z,6.80
2018-12-31T23:06:45.909Z,8.90
2018-12-31T23:09:25.890Z,8.20
2018-12-31T23:12:06.157Z,8.20
2018-12-31T23:14:46.208Z,8.00
2018-12-31T23:17:26.303Z,8.10
2018-12-31T23:20:06.435Z,8.10
2018-12-31T23:22:46.243Z,7.60
2018-12-31T23:25:26.356Z,7.10
2018-12-31T23:28:06.229Z,8.50
2018-12-31T23:30:46.215Z,7.60
2018-12-31T23:33:26.151Z,8.00
2018-12-31T23:36:06.150Z,8.60
2018-12-31T23:38:46.363Z,8.30
2018-12-31T23:41:15.106Z,7.40
2018-12-31T23:44:02.952Z,8.20
2018-12-31T23:46:43.347Z,7.70
2018-12-31T23:49:23.326Z,7.80
2018-12-31T23:52:03.364Z,7.80
2018-12-31T23:54:43.484Z,6.80
2018-12-31T23:57:23.471Z,7.70
